Time;durP1;ratioP1;P1;durP2;ratioP2;P2;SDS_P1;SDS_P2;PMS_P1;PMS_P2;Temp;Humidity;BMP_temperature;BMP_pressure;BME280_temperature;BME280_humidity;BME280_pressure;Samples;Min_cycle;Max_cycle;Signal;HPM_P1;HPM_P2
2023/05/12 00:01:57;;;;;;;26.23;23.43;;;13.90;99.90;;;;;;4811148;29;20324;-55
2023/05/12 00:04:25;;;;;;;20.27;18.17;;;13.80;99.90;;;;;;4811481;29;20749;-55
2023/05/12 00:06:55;;;;;;;25.47;22.07;;;13.80;99.90;;;;;;4824322;29;20232;-55
2023/05/12 00:09:23;;;;;;;27.07;23.37;;;14.00;99.90;;;;;;4829725;29;20688;-55
2023/05/12 00:11:51;;;;;;;28.20;25.27;;;13.80;99.90;;;;;;4824999;29;20224;-55
2023/05/12 00:14:20;;;;;;;29.40;26.30;;;13.70;99.90;;;;;;4811570;29;20720;-55
2023/05/12 00:16:50;;;;;;;25.80;23.07;;;13.50;99.90;;;;;;4819087;29;20716;-55
2023/05/12 00:19:19;;;;;;;22.37;20.10;;;13.50;99.90;;;;;;4829131;29;20280;-54
2023/05/12 00:21:47;;;;;;;23.60;21.20;;;13.40;99.90;;;;;;4839349;29;20337;-55
2023/05/12 00:24:17;;;;;;;19.83;17.83;;;13.60;99.90;;;;;;4845560;29;20239;-54
2023/05/12 00:26:45;;;;;;;23.27;20.80;;;13.60;99.90;;;;;;4844607;29;20274;-55
2023/05/12 00:29:16;;;;;;;20.70;18.70;;;13.70;99.90;;;;;;4835147;29;20592;-54
2023/05/12 00:31:44;;;;;;;17.50;15.70;;;13.60;99.90;;;;;;4825574;29;20713;-55
2023/05/12 00:34:15;;;;;;;19.57;17.57;;;13.70;99.90;;;;;;4826295;29;20240;-55
2023/05/12 00:36:43;;;;;;;19.83;17.83;;;13.80;99.90;;;;;;4825966;29;20228;-55
2023/05/12 00:39:11;;;;;;;21.03;18.87;;;13.60;99.90;;;;;;4824897;29;20604;-55
2023/05/12 00:41:41;;;;;;;18.77;16.93;;;13.50;99.90;;;;;;4824684;29;20242;-55
2023/05/12 00:44:11;;;;;;;17.50;15.80;;;13.40;99.90;;;;;;4826297;29;20238;-55
2023/05/12 00:46:39;;;;;;;18.50;16.70;;;13.50;99.90;;;;;;4824481;29;20246;-54
2023/05/12 00:49:08;;;;;;;18.17;16.37;;;13.50;99.90;;;;;;4824862;29;20239;-55
2023/05/12 00:51:37;;;;;;;19.20;17.40;;;13.30;99.90;;;;;;4839069;29;20231;-54
2023/05/12 00:54:05;;;;;;;16.60;15.10;;;13.20;99.90;;;;;;4843035;29;20247;-54
2023/05/12 00:56:38;;;;;;;15.93;14.43;;;13.20;99.90;;;;;;4844194;29;20711;-55
2023/05/12 00:59:09;;;;;;;14.70;13.37;;;13.10;99.90;;;;;;4842896;29;20729;-54
2023/05/12 01:01:54;;;;;;;15.00;13.70;;;13.10;99.90;;;;;;4867032;24;20250;-60
2023/05/12 01:04:22;;;;;;;17.23;15.63;;;13.10;99.90;;;;;;4805628;29;20724;-57
2023/05/12 01:06:55;;;;;;;20.03;18.07;;;13.10;99.90;;;;;;4805913;29;20327;-57
2023/05/12 01:09:23;;;;;;;24.97;22.37;;;13.00;99.90;;;;;;4807739;29;20781;-57
2023/05/12 01:11:52;;;;;;;24.40;22.10;;;13.00;99.90;;;;;;4807550;29;20696;-57
2023/05/12 01:14:21;;;;;;;22.60;20.40;;;12.80;99.90;;;;;;4821329;29;20228;-57
2023/05/12 01:16:53;;;;;;;24.37;21.97;;;12.80;99.90;;;;;;4808454;29;20236;-57
2023/05/12 01:19:34;;;;;;;22.10;19.90;;;12.90;99.90;;;;;;4805812;29;20240;-57
2023/05/12 01:22:02;;;;;;;23.67;21.13;;;12.90;99.90;;;;;;4825117;29;20264;-58
2023/05/12 01:24:33;;;;;;;27.90;25.13;;;13.00;99.90;;;;;;4825179;29;20224;-57
2023/05/12 01:27:04;;;;;;;28.43;25.17;;;13.10;99.90;;;;;;4825261;29;20589;-57
2023/05/12 01:29:33;;;;;;;31.60;28.23;;;13.30;99.90;;;;;;4823884;29;20249;-57
2023/05/12 01:32:01;;;;;;;31.33;28.13;;;13.20;99.90;;;;;;4823528;29;20601;-57
2023/05/12 01:34:30;;;;;;;29.97;26.97;;;13.20;99.90;;;;;;4823462;29;20236;-57
2023/05/12 01:36:58;;;;;;;29.17;26.17;;;13.30;99.90;;;;;;4810066;29;20237;-58
2023/05/12 01:39:26;;;;;;;30.27;27.17;;;13.30;99.90;;;;;;4805539;29;20293;-57
2023/05/12 01:41:54;;;;;;;29.70;26.67;;;13.10;99.90;;;;;;4805733;29;20601;-57
2023/05/12 01:44:24;;;;;;;29.30;26.20;;;13.10;99.90;;;;;;4805644;29;20651;-57
2023/05/12 01:46:52;;;;;;;30.23;27.03;;;13.00;99.90;;;;;;4806796;29;20320;-56
2023/05/12 01:49:21;;;;;;;27.47;24.67;;;13.00;99.90;;;;;;4822394;29;20232;-57
2023/05/12 01:51:49;;;;;;;24.37;21.77;;;12.90;99.90;;;;;;4821329;29;20692;-57
2023/05/12 01:54:23;;;;;;;27.00;24.20;;;13.20;99.90;;;;;;4823712;29;20239;-57
2023/05/12 01:56:51;;;;;;;28.53;25.37;;;13.10;99.90;;;;;;4823661;29;20700;-57
2023/05/12 01:59:19;;;;;;;25.23;22.60;;;13.00;99.90;;;;;;4823902;29;20257;-57
2023/05/12 02:01:49;;;;;;;26.00;23.37;;;12.90;99.90;;;;;;4822805;29;20712;-58
2023/05/12 02:04:23;;;;;;;24.13;21.73;;;13.00;99.90;;;;;;4823558;29;20723;-57
2023/05/12 02:06:51;;;;;;;22.90;20.53;;;12.90;99.90;;;;;;4805072;29;20243;-58
2023/05/12 02:09:21;;;;;;;24.57;22.17;;;13.00;99.90;;;;;;4806419;29;20240;-57
2023/05/12 02:11:50;;;;;;;23.93;21.53;;;12.90;99.90;;;;;;4805147;29;20712;-57
2023/05/12 02:14:18;;;;;;;23.40;21.00;;;12.90;99.90;;;;;;4805164;29;20246;-57
2023/05/12 02:16:49;;;;;;;21.10;18.90;;;12.90;99.90;;;;;;4804917;29;20258;-57
2023/05/12 02:19:19;;;;;;;22.57;19.77;;;12.90;99.90;;;;;;4806260;29;20256;-57
2023/05/12 02:21:47;;;;;;;19.73;17.63;;;12.90;99.90;;;;;;4820900;29;20319;-57
2023/05/12 02:24:16;;;;;;;18.67;16.50;;;12.90;99.90;;;;;;4824522;29;20633;-57
2023/05/12 02:26:45;;;;;;;17.90;16.00;;;12.90;99.90;;;;;;4822999;29;20715;-57
2023/05/12 02:29:13;;;;;;;18.00;15.23;;;13.00;99.90;;;;;;4823189;29;20242;-57
2023/05/12 02:31:42;;;;;;;12.77;11.30;;;13.00;99.90;;;;;;4822697;29;20716;-57
2023/05/12 02:34:16;;;;;;;14.73;13.23;;;13.20;99.90;;;;;;4823076;29;20258;-57
2023/05/12 02:36:46;;;;;;;15.33;12.73;;;13.30;99.90;;;;;;4812068;29;20227;-57
2023/05/12 02:39:14;;;;;;;11.53;10.33;;;13.20;99.90;;;;;;4804632;29;20236;-57
2023/05/12 02:41:42;;;;;;;12.97;11.67;;;13.40;99.90;;;;;;4804554;29;20240;-57
2023/05/12 02:44:11;;;;;;;11.20;10.20;;;13.30;99.90;;;;;;4804696;29;20777;-57
2023/05/12 02:46:39;;;;;;;11.90;10.70;;;13.30;99.90;;;;;;4803726;29;20315;-57
2023/05/12 02:49:07;;;;;;;11.43;10.30;;;13.20;99.90;;;;;;4804599;29;20273;-57
2023/05/12 02:51:35;;;;;;;11.60;9.70;;;13.20;99.90;;;;;;4819349;29;20596;-57
2023/05/12 02:54:05;;;;;;;10.80;9.70;;;13.20;99.90;;;;;;4824142;29;20235;-57
2023/05/12 02:56:33;;;;;;;11.23;9.40;;;13.30;99.90;;;;;;4823938;29;20276;-57
2023/05/12 02:59:01;;;;;;;10.77;9.67;;;13.20;99.90;;;;;;4822827;29;20249;-57
2023/05/12 03:01:29;;;;;;;9.13;8.23;;;13.20;99.90;;;;;;4822176;29;20331;-58
2023/05/12 03:03:57;;;;;;;8.90;8.00;;;13.20;99.90;;;;;;4823756;29;20252;-57
2023/05/12 03:06:25;;;;;;;9.00;8.10;;;13.20;99.90;;;;;;4815563;29;20220;-57
2023/05/12 03:08:54;;;;;;;8.73;7.83;;;13.40;99.90;;;;;;4805386;29;20271;-57
2023/05/12 03:11:24;;;;;;;9.20;8.40;;;13.40;99.90;;;;;;4819590;29;20240;-57
2023/05/12 03:13:52;;;;;;;9.00;7.93;;;13.50;99.90;;;;;;4819626;29;20705;-56
2023/05/12 03:16:21;;;;;;;9.17;8.23;;;13.50;99.90;;;;;;4805641;29;20220;-57
2023/05/12 03:18:49;;;;;;;8.57;7.30;;;13.50;99.90;;;;;;4790771;29;20237;-57
2023/05/12 03:21:17;;;;;;;7.87;7.07;;;13.50;99.90;;;;;;4814287;29;20244;-57
2023/05/12 03:23:45;;;;;;;8.77;6.70;;;13.60;99.90;;;;;;4823524;29;20565;-57
2023/05/12 03:26:13;;;;;;;8.77;7.27;;;13.60;99.90;;;;;;4823674;29;20232;-57
2023/05/12 03:28:43;;;;;;;7.63;7.00;;;13.60;99.90;;;;;;4823826;29;20236;-57
2023/05/12 03:31:11;;;;;;;8.60;7.60;;;13.60;99.90;;;;;;4821994;29;20247;-57
2023/05/12 03:33:39;;;;;;;8.00;7.20;;;13.60;99.90;;;;;;4823691;29;20326;-57
2023/05/12 03:36:07;;;;;;;7.93;7.13;;;13.70;99.90;;;;;;4815053;29;20238;-57
2023/05/12 03:38:36;;;;;;;8.27;7.43;;;13.70;99.90;;;;;;4803899;29;20233;-58
2023/05/12 03:41:05;;;;;;;8.90;7.00;;;13.60;99.90;;;;;;4804015;29;20236;-57
2023/05/12 03:43:34;;;;;;;8.20;7.20;;;13.50;99.90;;;;;;4803970;29;20235;-57
2023/05/12 03:46:04;;;;;;;8.10;7.30;;;13.50;99.90;;;;;;4804015;29;20601;-57
2023/05/12 03:48:32;;;;;;;7.77;6.60;;;13.50;99.90;;;;;;4803966;29;20237;-57
2023/05/12 03:51:01;;;;;;;6.40;5.90;;;13.50;99.90;;;;;;4808098;29;20307;-57
2023/05/12 03:53:29;;;;;;;7.67;6.97;;;13.70;99.90;;;;;;4823188;29;20231;-57
2023/05/12 03:55:57;;;;;;;7.03;6.33;;;13.70;99.90;;;;;;4823466;29;20714;-57
2023/05/12 03:58:26;;;;;;;6.97;6.27;;;13.60;99.90;;;;;;4824322;29;20228;-58
2023/05/12 04:00:56;;;;;;;7.40;6.70;;;13.60;99.90;;;;;;4825014;29;20768;-57
2023/05/12 04:03:26;;;;;;;6.87;6.27;;;13.60;99.90;;;;;;4825158;29;20255;-55
2023/05/12 04:05:58;;;;;;;7.07;6.20;;;13.60;99.90;;;;;;4815553;29;20257;-57
2023/05/12 04:08:26;;;;;;;6.67;6.00;;;13.60;99.90;;;;;;4808464;29;20712;-57
2023/05/12 04:10:56;;;;;;;9.87;6.70;;;13.60;99.90;;;;;;4808484;29;20237;-57
2023/05/12 04:13:25;;;;;;;7.30;6.50;;;13.60;99.90;;;;;;4807176;29;20773;-57
2023/05/12 04:15:55;;;;;;;8.87;6.40;;;13.60;99.90;;;;;;4808390;29;20239;-56
2023/05/12 04:18:23;;;;;;;6.73;6.13;;;13.50;99.90;;;;;;4811977;29;20287;-57
2023/05/12 04:20:53;;;;;;;6.40;5.80;;;13.50;99.90;;;;;;4823401;29;20234;-57
2023/05/12 04:23:22;;;;;;;8.60;6.80;;;13.60;99.90;;;;;;4824961;29;20254;-57
2023/05/12 04:25:50;;;;;;;6.33;5.73;;;13.60;99.90;;;;;;4824919;29;20692;-57
2023/05/12 04:28:18;;;;;;;7.63;6.63;;;13.70;99.90;;;;;;4808127;29;20285;-57
2023/05/12 04:30:47;;;;;;;7.00;5.63;;;13.60;99.90;;;;;;4796940;29;20251;-57
2023/05/12 04:33:15;;;;;;;6.80;5.90;;;13.70;99.90;;;;;;4796175;29;20248;-57
2023/05/12 04:35:44;;;;;;;6.43;5.83;;;13.90;99.90;;;;;;4810646;29;21915;-57
2023/05/12 04:38:16;;;;;;;7.80;5.73;;;13.90;99.90;;;;;;4795916;29;21142;-57
2023/05/12 04:40:44;;;;;;;7.80;5.47;;;13.90;99.90;;;;;;4795649;29;20248;-57
2023/05/12 04:43:12;;;;;;;7.13;5.60;;;13.90;99.90;;;;;;4796576;29;20236;-58
2023/05/12 04:45:44;;;;;;;9.13;5.90;;;13.80;99.90;;;;;;4795623;29;20846;-58
2023/05/12 04:48:12;;;;;;;6.23;5.43;;;14.00;99.90;;;;;;4793227;29;20251;-57
2023/05/12 04:50:41;;;;;;;6.20;5.60;;;14.00;99.90;;;;;;4797775;29;20931;-57
2023/05/12 04:53:10;;;;;;;9.00;5.80;;;13.90;99.90;;;;;;4799061;29;20236;-57
2023/05/12 04:55:40;;;;;;;7.57;6.17;;;14.00;99.90;;;;;;4797363;29;20612;-57
2023/05/12 04:58:08;;;;;;;6.10;5.50;;;14.00;99.90;;;;;;4795264;29;20232;-57
2023/05/12 05:00:36;;;;;;;6.50;5.77;;;14.00;99.90;;;;;;4794478;29;20259;-58
2023/05/12 05:03:04;;;;;;;7.10;5.40;;;13.90;99.90;;;;;;4795716;29;20252;-58
2023/05/12 05:05:33;;;;;;;6.30;5.70;;;14.00;99.90;;;;;;4795720;29;20765;-57
2023/05/12 05:08:01;;;;;;;6.17;5.57;;;14.10;99.90;;;;;;4796353;29;20323;-57
2023/05/12 05:10:29;;;;;;;7.23;5.40;;;14.10;99.90;;;;;;4796202;29;20717;-57
2023/05/12 05:12:59;;;;;;;6.07;5.47;;;14.10;99.90;;;;;;4813293;29;20239;-57
2023/05/12 05:15:27;;;;;;;5.80;5.20;;;14.20;99.90;;;;;;4796989;29;20319;-57
2023/05/12 05:17:56;;;;;;;6.47;5.70;;;14.10;99.90;;;;;;4796327;29;20236;-55
2023/05/12 05:20:27;;;;;;;6.10;5.50;;;14.10;99.90;;;;;;4796741;29;20343;-57
2023/05/12 05:22:57;;;;;;;8.93;5.80;;;14.10;99.90;;;;;;4812564;29;20297;-57
2023/05/12 05:25:25;;;;;;;8.37;5.27;;;14.10;99.90;;;;;;4797728;29;20232;-58
2023/05/12 05:27:55;;;;;;;5.93;5.43;;;14.20;99.90;;;;;;4794982;29;20244;-57
2023/05/12 05:30:25;;;;;;;6.73;5.40;;;14.20;99.90;;;;;;4794953;29;20736;-57
2023/05/12 05:32:53;;;;;;;7.97;5.67;;;14.20;99.90;;;;;;4796666;29;20721;-57
2023/05/12 05:35:21;;;;;;;5.50;5.00;;;14.40;99.90;;;;;;4795708;29;20667;-57
2023/05/12 05:37:52;;;;;;;6.20;5.33;;;14.40;99.90;;;;;;4793721;29;20251;-58
2023/05/12 05:40:22;;;;;;;5.60;5.10;;;14.40;99.90;;;;;;4794909;29;20818;-57
2023/05/12 05:42:50;;;;;;;6.60;5.50;;;14.60;99.90;;;;;;4794729;29;20310;-56
2023/05/12 05:45:18;;;;;;;6.60;5.37;;;14.60;99.90;;;;;;4794902;29;20245;-57
2023/05/12 05:47:51;;;;;;;6.53;5.67;;;14.60;99.90;;;;;;4792839;29;20836;-57
2023/05/12 05:50:20;;;;;;;7.20;4.83;;;14.60;99.90;;;;;;4794962;29;20949;-58
2023/05/12 05:52:48;;;;;;;7.03;6.20;;;14.60;99.90;;;;;;4794611;29;20748;-58
2023/05/12 05:55:16;;;;;;;6.83;5.80;;;14.60;99.90;;;;;;4796113;29;20351;-57
2023/05/12 05:57:45;;;;;;;7.47;5.30;;;14.70;99.90;;;;;;4792719;29;20285;-58
2023/05/12 06:00:14;;;;;;;6.27;5.57;;;14.80;99.90;;;;;;4795642;29;20237;-57
2023/05/12 06:02:50;;;;;;;7.00;5.50;;;15.00;99.90;;;;;;4794899;29;20355;-57
2023/05/12 06:05:21;;;;;;;7.27;5.40;;;15.10;99.90;;;;;;4793812;29;20729;-55
2023/05/12 06:07:49;;;;;;;5.93;5.33;;;15.10;99.90;;;;;;4791910;29;20321;-58
2023/05/12 06:10:18;;;;;;;6.27;4.93;;;15.20;99.90;;;;;;4796000;29;21486;-55
2023/05/12 06:12:47;;;;;;;6.27;5.30;;;15.20;99.90;;;;;;4811659;29;20327;-57
2023/05/12 06:15:15;;;;;;;5.80;5.30;;;15.30;99.90;;;;;;4796136;29;20685;-58
2023/05/12 06:17:43;;;;;;;5.50;5.00;;;15.30;99.90;;;;;;4793901;29;20235;-57
2023/05/12 06:20:13;;;;;;;6.17;5.33;;;15.30;99.90;;;;;;4795305;29;20247;-57
2023/05/12 06:22:43;;;;;;;7.83;5.67;;;15.40;99.90;;;;;;4794002;29;20247;-57
2023/05/12 06:25:11;;;;;;;6.27;5.30;;;15.40;99.90;;;;;;4795470;29;20487;-57
2023/05/12 06:27:39;;;;;;;6.93;5.87;;;15.50;99.90;;;;;;4793446;29;20642;-57
2023/05/12 06:30:09;;;;;;;6.90;5.77;;;15.60;99.90;;;;;;4793370;29;20237;-57
2023/05/12 06:32:37;;;;;;;7.53;5.30;;;15.70;99.90;;;;;;4795623;29;20803;-57
2023/05/12 06:35:06;;;;;;;5.70;5.10;;;15.80;99.90;;;;;;4794397;29;20802;-57
2023/05/12 06:37:36;;;;;;;7.03;5.13;;;15.90;99.90;;;;;;4792971;29;20240;-56
2023/05/12 06:40:05;;;;;;;6.93;5.47;;;16.00;99.90;;;;;;4794336;29;20463;-57
2023/05/12 06:42:33;;;;;;;6.03;5.27;;;16.00;99.90;;;;;;4793332;29;20323;-57
2023/05/12 06:45:09;;;;;;;7.27;5.40;;;16.10;99.90;;;;;;4809480;29;20232;-57
2023/05/12 06:47:38;;;;;;;5.83;5.27;;;16.20;99.90;;;;;;4792922;29;20650;-58
2023/05/12 06:50:08;;;;;;;6.27;5.17;;;16.20;99.90;;;;;;4794976;29;20237;-57
2023/05/12 06:52:38;;;;;;;7.90;5.10;;;16.20;99.90;;;;;;4796505;29;20716;-56
2023/05/12 06:55:07;;;;;;;5.87;5.20;;;16.30;99.90;;;;;;4795613;29;20710;-58
2023/05/12 06:57:35;;;;;;;8.17;5.10;;;16.20;99.90;;;;;;4795175;29;20241;-58
2023/05/12 07:00:04;;;;;;;6.47;5.00;;;16.20;99.90;;;;;;4797103;29;20305;-57
2023/05/12 07:02:32;;;;;;;5.77;5.10;;;16.40;99.90;;;;;;4796207;29;20598;-57
2023/05/12 07:05:00;;;;;;;7.47;5.10;;;16.40;99.90;;;;;;4795653;29;20709;-55
2023/05/12 07:07:28;;;;;;;6.63;5.23;;;16.50;99.90;;;;;;4793957;29;20247;-57
2023/05/12 07:09:58;;;;;;;13.40;5.50;;;16.60;99.90;;;;;;4794476;29;20811;-57
2023/05/12 07:12:26;;;;;;;6.20;5.43;;;16.60;99.90;;;;;;4794754;29;20571;-56
2023/05/12 07:14:54;;;;;;;6.50;5.90;;;16.70;99.90;;;;;;4794792;29;20246;-57
2023/05/12 07:17:22;;;;;;;6.90;6.20;;;16.80;99.90;;;;;;4793464;29;20604;-57
2023/05/12 07:19:51;;;;;;;7.90;5.20;;;16.90;99.90;;;;;;4797493;29;20697;-58
2023/05/12 07:22:19;;;;;;;7.00;5.40;;;17.10;99.90;;;;;;4797326;29;20737;-57
2023/05/12 07:24:47;;;;;;;6.60;5.03;;;17.00;99.90;;;;;;4797762;29;20242;-57
2023/05/12 07:27:17;;;;;;;8.63;5.47;;;17.10;99.90;;;;;;4793721;29;20237;-57
2023/05/12 07:29:45;;;;;;;6.00;5.40;;;17.20;99.90;;;;;;4793963;29;20259;-57
2023/05/12 07:32:13;;;;;;;5.87;5.03;;;17.20;99.90;;;;;;4793842;29;20244;-57
2023/05/12 07:34:41;;;;;;;7.40;5.63;;;17.30;99.90;;;;;;4797660;29;20256;-57
2023/05/12 07:37:10;;;;;;;7.40;5.83;;;17.30;99.90;;;;;;4797065;29;20715;-58
2023/05/12 07:39:39;;;;;;;6.07;5.03;;;17.30;99.90;;;;;;4796576;29;20313;-57
2023/05/12 07:42:07;;;;;;;7.47;4.93;;;17.40;99.90;;;;;;4797492;29;20262;-57
2023/05/12 07:44:37;;;;;;;8.53;5.33;;;17.50;99.90;;;;;;4797634;29;20237;-57
2023/05/12 07:47:05;;;;;;;7.20;5.83;;;17.70;99.90;;;;;;4798468;29;20804;-59
2023/05/12 07:49:34;;;;;;;6.03;5.43;;;17.70;99.90;;;;;;4799049;29;20246;-58
2023/05/12 07:52:02;;;;;;;7.63;5.40;;;17.70;99.90;;;;;;4800148;29;20596;-58
2023/05/12 07:54:31;;;;;;;6.80;5.80;;;17.90;99.90;;;;;;4800132;29;20253;-56
2023/05/12 07:56:59;;;;;;;7.60;5.80;;;17.80;99.90;;;;;;4800236;29;20232;-57
2023/05/12 07:59:27;;;;;;;7.37;5.87;;;17.60;99.90;;;;;;4797968;29;20234;-57
2023/05/12 08:01:57;;;;;;;7.53;5.70;;;17.70;99.90;;;;;;4799002;29;20239;-57
2023/05/12 08:04:25;;;;;;;7.33;6.00;;;17.80;99.90;;;;;;4798307;29;20243;-57
2023/05/12 08:06:53;;;;;;;7.10;5.93;;;17.80;99.90;;;;;;4799471;29;20710;-57
2023/05/12 08:09:22;;;;;;;12.20;5.83;;;17.70;99.90;;;;;;4796996;29;20712;-57
2023/05/12 08:11:50;;;;;;;8.73;5.80;;;17.80;99.90;;;;;;4797449;29;20252;-57
2023/05/12 08:14:18;;;;;;;7.27;5.90;;;17.90;99.90;;;;;;4797953;29;20770;-57
2023/05/12 08:16:47;;;;;;;6.90;5.63;;;18.00;99.90;;;;;;4799871;29;20237;-57
2023/05/12 08:19:16;;;;;;;8.60;5.50;;;18.00;99.90;;;;;;4798279;29;20223;-58
2023/05/12 08:21:44;;;;;;;8.90;5.97;;;18.10;99.90;;;;;;4799643;29;21481;-58
2023/05/12 08:24:12;;;;;;;6.50;5.60;;;18.20;99.90;;;;;;4800128;29;20250;-56
2023/05/12 08:26:40;;;;;;;10.47;5.90;;;18.20;99.90;;;;;;4798016;29;20248;-57
2023/05/12 08:29:08;;;;;;;5.67;5.17;;;18.40;99.90;;;;;;4794702;29;20721;-57
2023/05/12 08:31:38;;;;;;;10.57;5.47;;;18.50;99.90;;;;;;4796578;29;20726;-57
2023/05/12 08:34:06;;;;;;;6.10;5.33;;;18.70;99.90;;;;;;4796986;29;20231;-56
2023/05/12 08:36:39;;;;;;;8.67;5.53;;;18.80;99.90;;;;;;4797166;29;20729;-58
2023/05/12 08:39:08;;;;;;;9.53;5.40;;;18.90;99.90;;;;;;4796927;29;20231;-56
2023/05/12 08:41:43;;;;;;;6.10;4.63;;;19.00;99.90;;;;;;4797368;29;20640;-57
2023/05/12 08:44:12;;;;;;;8.23;5.57;;;19.20;99.90;;;;;;4798719;29;20271;-57
2023/05/12 08:46:41;;;;;;;7.37;4.93;;;19.50;99.90;;;;;;4798983;29;20240;-57
2023/05/12 08:49:14;;;;;;;7.17;5.27;;;19.70;99.90;;;;;;4798000;29;20259;-57
2023/05/12 08:51:45;;;;;;;8.20;5.30;;;20.10;99.90;;;;;;4798289;29;20243;-57
2023/05/12 08:54:26;;;;;;;7.70;6.07;;;20.30;99.90;;;;;;4798681;29;20604;-58
2023/05/12 08:56:55;;;;;;;8.33;5.83;;;20.80;99.90;;;;;;4798931;29;20243;-57
2023/05/12 08:59:26;;;;;;;7.27;6.10;;;20.80;99.90;;;;;;4797466;29;20609;-58
2023/05/12 09:01:55;;;;;;;6.23;5.73;;;20.90;99.90;;;;;;4798428;29;20249;-57
2023/05/12 09:04:23;;;;;;;7.73;5.10;;;21.10;99.90;;;;;;4799309;29;20252;-57
2023/05/12 09:06:53;;;;;;;7.50;5.50;;;21.40;99.90;;;;;;4799441;29;20245;-57
2023/05/12 09:09:25;;;;;;;5.73;5.13;;;21.80;99.90;;;;;;4797178;29;20729;-59
2023/05/12 09:11:56;;;;;;;5.67;5.17;;;21.80;99.90;;;;;;4798463;29;20303;-57
2023/05/12 09:14:25;;;;;;;6.30;5.70;;;21.80;99.90;;;;;;4798847;29;20259;-58
2023/05/12 09:16:59;;;;;;;8.27;5.07;;;21.90;99.90;;;;;;4797311;29;20255;-58
2023/05/12 09:19:28;;;;;;;5.87;5.20;;;21.80;99.90;;;;;;4796813;29;20704;-57
2023/05/12 09:21:58;;;;;;;8.07;5.60;;;22.00;99.90;;;;;;4798472;29;20597;-57
2023/05/12 09:24:36;;;;;;;8.30;5.40;;;22.20;99.90;;;;;;4798156;29;20624;-57
2023/05/12 09:27:05;;;;;;;7.93;5.40;;;22.20;99.90;;;;;;4798371;29;20252;-59
2023/05/12 09:29:34;;;;;;;11.13;5.17;;;22.40;99.90;;;;;;4797434;29;20240;-57
2023/05/12 09:32:12;;;;;;;6.53;4.63;;;22.20;99.90;;;;;;4797785;29;20272;-57
2023/05/12 09:34:40;;;;;;;7.30;4.77;;;22.50;99.90;;;;;;4798322;29;20267;-57
2023/05/12 09:37:10;;;;;;;5.40;4.63;;;22.30;99.90;;;;;;4797067;29;20652;-57
2023/05/12 09:39:40;;;;;;;5.20;4.70;;;22.20;99.90;;;;;;4797443;29;20255;-57
2023/05/12 09:42:11;;;;;;;5.73;4.80;;;22.40;99.90;;;;;;4797949;29;20249;-57
2023/05/12 09:44:41;;;;;;;5.00;4.60;;;22.20;99.90;;;;;;4797959;29;20233;-57
2023/05/12 09:47:09;;;;;;;7.37;4.57;;;22.20;99.90;;;;;;4797305;29;20236;-57
2023/05/12 09:49:38;;;;;;;9.33;4.87;;;22.40;99.90;;;;;;4796237;29;20250;-58
2023/05/12 09:52:06;;;;;;;5.23;4.40;;;22.80;99.90;;;;;;4797925;29;20721;-58
2023/05/12 09:54:39;;;;;;;4.23;3.93;;;22.80;99.90;;;;;;4797007;29;20237;-57
2023/05/12 09:57:10;;;;;;;6.63;4.43;;;23.50;99.90;;;;;;4797755;29;20241;-57
2023/05/12 09:59:40;;;;;;;5.80;3.80;;;23.70;99.90;;;;;;4796228;29;20724;-56
2023/05/12 10:02:14;;;;;;;5.77;4.57;;;23.90;99.90;;;;;;4797548;29;20253;-57
2023/05/12 10:04:49;;;;;;;5.73;3.67;;;23.80;99.90;;;;;;4797688;29;20326;-57
2023/05/12 10:07:21;;;;;;;4.47;4.07;;;23.80;99.90;;;;;;4796769;29;20248;-57
2023/05/12 10:09:51;;;;;;;4.90;4.40;;;23.70;99.90;;;;;;4794668;29;20604;-58
2023/05/12 10:12:19;;;;;;;6.87;3.97;;;23.80;99.90;;;;;;4796044;29;20729;-58
2023/05/12 10:14:48;;;;;;;5.50;3.53;;;23.80;99.90;;;;;;4796084;29;20781;-56
2023/05/12 10:17:18;;;;;;;4.47;3.60;;;24.30;99.90;;;;;;4794520;29;20327;-58
2023/05/12 10:19:47;;;;;;;7.57;3.93;;;24.40;99.90;;;;;;4795115;29;20596;-58
2023/05/12 10:22:17;;;;;;;5.40;3.90;;;24.60;99.90;;;;;;4795865;29;20711;-59
2023/05/12 10:24:46;;;;;;;5.67;4.30;;;24.60;99.90;;;;;;4794503;29;20244;-57
2023/05/12 10:27:17;;;;;;;4.67;3.37;;;24.80;99.90;;;;;;4792080;29;20264;-59
2023/05/12 10:29:46;;;;;;;7.40;3.97;;;25.00;99.90;;;;;;4794192;29;20233;-58
2023/05/12 10:32:15;;;;;;;5.83;3.73;;;24.90;99.90;;;;;;4795323;29;20249;-58
2023/05/12 10:34:43;;;;;;;4.73;3.87;;;24.60;99.90;;;;;;4795530;29;20699;-58
2023/05/12 10:37:12;;;;;;;4.37;3.47;;;24.80;99.90;;;;;;4795416;29;20733;-58
2023/05/12 10:39:47;;;;;;;7.60;3.50;;;25.10;99.90;;;;;;4795423;29;20244;-56
2023/05/12 10:42:24;;;;;;;5.20;3.60;;;25.10;98.00;;;;;;4793481;29;20246;-58
2023/05/12 10:44:53;;;;;;;5.73;3.40;;;25.30;99.40;;;;;;4791760;29;20815;-58
2023/05/12 10:47:26;;;;;;;5.47;3.43;;;25.50;97.10;;;;;;4789273;29;20893;-58
2023/05/12 10:49:57;;;;;;;4.27;3.50;;;25.40;98.10;;;;;;4794614;29;20325;-58
2023/05/12 10:52:25;;;;;;;6.53;3.53;;;25.50;97.50;;;;;;4795172;29;20716;-55
2023/05/12 10:55:00;;;;;;;6.73;3.43;;;25.70;96.30;;;;;;4795789;29;20246;-57
2023/05/12 10:57:31;;;;;;;4.20;3.40;;;25.50;96.50;;;;;;4795179;29;20260;-57
2023/05/12 11:00:01;;;;;;;3.87;3.40;;;25.80;98.30;;;;;;4797175;29;20799;-57
2023/05/12 11:02:32;;;;;;;4.93;3.00;;;26.20;95.50;;;;;;4795447;29;20305;-58
2023/05/12 11:05:10;;;;;;;5.60;3.13;;;26.30;96.90;;;;;;4794012;29;20704;-58
2023/05/12 11:07:40;;;;;;;5.43;3.60;;;26.30;93.40;;;;;;4791876;29;20251;-57
2023/05/12 11:10:11;;;;;;;3.70;3.40;;;25.90;93.20;;;;;;4793838;29;20247;-57
2023/05/12 11:12:43;;;;;;;5.30;3.47;;;25.50;94.60;;;;;;4795268;29;20727;-57
2023/05/12 11:15:12;;;;;;;6.20;3.40;;;24.60;93.60;;;;;;4796182;29;20238;-57
2023/05/12 11:17:43;;;;;;;5.10;3.40;;;23.90;94.60;;;;;;4794631;29;20243;-57
2023/05/12 11:20:22;;;;;;;4.47;3.43;;;23.60;95.00;;;;;;4795809;29;20338;-58
2023/05/12 11:22:50;;;;;;;4.10;3.07;;;23.50;97.90;;;;;;4796816;29;20355;-58
2023/05/12 11:25:18;;;;;;;4.87;3.60;;;23.40;97.60;;;;;;4797304;29;20829;-58
2023/05/12 11:27:49;;;;;;;7.90;3.23;;;23.30;96.80;;;;;;4795460;29;20245;-57
2023/05/12 11:30:18;;;;;;;5.40;3.77;;;23.20;97.40;;;;;;4796275;29;20241;-57
2023/05/12 11:32:46;;;;;;;5.57;3.50;;;23.20;96.80;;;;;;4796697;29;20825;-57
2023/05/12 11:35:16;;;;;;;3.47;3.17;;;23.20;98.30;;;;;;4796714;29;20337;-58
2023/05/12 11:37:46;;;;;;;4.63;3.53;;;23.20;97.40;;;;;;4794877;29;20248;-57
2023/05/12 11:40:18;;;;;;;7.30;3.60;;;23.20;97.60;;;;;;4796439;29;20245;-57
2023/05/12 11:42:50;;;;;;;5.03;3.30;;;23.20;98.60;;;;;;4797580;29;20966;-58
2023/05/12 11:45:21;;;;;;;4.80;3.17;;;23.80;98.90;;;;;;4797024;29;20250;-58
2023/05/12 11:47:50;;;;;;;3.67;3.00;;;24.80;96.50;;;;;;4794826;29;20787;-58
2023/05/12 11:50:22;;;;;;;4.53;3.30;;;25.30;94.70;;;;;;4796733;29;20767;-57
2023/05/12 11:52:51;;;;;;;3.63;3.07;;;25.80;95.90;;;;;;4797222;29;20715;-58
2023/05/12 11:55:22;;;;;;;4.00;2.80;;;25.70;95.60;;;;;;4796943;29;20258;-59
2023/05/12 11:57:59;;;;;;;4.30;3.33;;;25.20;94.90;;;;;;4795948;29;20243;-57
2023/05/12 12:00:31;;;;;;;5.67;3.50;;;24.30;94.60;;;;;;4795863;29;20227;-57
2023/05/12 12:03:10;;;;;;;5.57;3.40;;;23.80;95.50;;;;;;4796601;29;20246;-59
2023/05/12 12:05:39;;;;;;;5.20;3.60;;;23.70;95.90;;;;;;4796343;29;20333;-58
2023/05/12 12:08:09;;;;;;;5.37;3.37;;;23.80;97.60;;;;;;4792902;29;20245;-57
2023/05/12 12:10:37;;;;;;;5.60;3.57;;;24.10;97.60;;;;;;4794224;29;20238;-58
2023/05/12 12:13:07;;;;;;;3.60;3.00;;;23.90;96.60;;;;;;4793533;29;20248;-57
2023/05/12 12:15:35;;;;;;;6.03;3.30;;;23.60;94.80;;;;;;4793113;29;20237;-58
2023/05/12 12:18:03;;;;;;;5.00;3.60;;;23.20;95.50;;;;;;4790830;29;20647;-57
2023/05/12 12:20:31;;;;;;;8.07;3.50;;;23.00;95.50;;;;;;4795768;29;20245;-57
2023/05/12 12:22:59;;;;;;;4.57;3.47;;;22.80;95.50;;;;;;4797313;29;20242;-58
2023/05/12 12:25:27;;;;;;;5.70;3.30;;;22.70;97.00;;;;;;4797881;29;20233;-57
2023/05/12 12:27:56;;;;;;;5.00;3.10;;;22.70;97.60;;;;;;4794107;29;20252;-57
2023/05/12 12:30:25;;;;;;;3.87;3.17;;;22.80;96.40;;;;;;4797633;29;20738;-57
2023/05/12 12:32:53;;;;;;;3.10;2.80;;;22.80;96.40;;;;;;4797535;29;21056;-57
2023/05/12 12:35:23;;;;;;;3.93;3.10;;;23.00;97.00;;;;;;4797843;29;20287;-58
2023/05/12 12:37:51;;;;;;;3.17;2.57;;;23.10;94.90;;;;;;4794323;29;20990;-57
2023/05/12 12:40:19;;;;;;;4.60;3.13;;;23.10;97.30;;;;;;4795926;29;20512;-55
2023/05/12 12:42:47;;;;;;;4.07;2.90;;;23.30;96.40;;;;;;4797237;29;20241;-57
2023/05/12 12:45:15;;;;;;;3.53;2.87;;;23.20;95.00;;;;;;4796821;29;20238;-57
2023/05/12 12:47:50;;;;;;;11.63;2.97;;;23.20;94.70;;;;;;4794114;29;20244;-57
2023/05/12 12:50:19;;;;;;;5.10;2.63;;;23.30;93.90;;;;;;4795483;29;20250;-56
2023/05/12 12:52:47;;;;;;;5.13;2.80;;;23.30;94.30;;;;;;4796695;29;20718;-57
2023/05/12 12:55:16;;;;;;;4.30;2.63;;;23.60;95.50;;;;;;4796676;29;20785;-56